SCSE/LSC METAR and TAF weather

Enter ICAO airport designator
Station Type Date Time Source
SCSE METAR 2020/12/06 01:00 UTC NOAA

SCSE 060100Z AUTO 30005KT 9999 SCT012/// 13/10 Q1017


Station Type Date Time Source
SCSE Decoded METAR 2020/12/06 01:00 UTC NOAA

La Serena, Chile (SCSE) 29-54S 071-12W
Dec 05, 2020 - 08:00 PM EST / 2020.12.06 0100 UTC
Wind: from the WNW (300 degrees) at 6 MPH (5 KT):0
Visibility: greater than 7 mile(s):0
Sky conditions: partly cloudy
Temperature: 55 F (13 C)
Dew Point: 50 F (10 C)
Relative Humidity: 81%
Pressure (altimeter): 30.03 in. Hg (1017 hPa)
ob: SCSE 060100Z AUTO 30005KT 9999 SCT012/// 13/10 Q1017
cycle: 1

Station Type Date Time Source
SCSE TAF 2020/12/06 00:00 UTC NOAA

TAF SCSE 052200Z 0600/0624 27008KT 9999 SCT015 TX18/0618Z TN11/0611Z
BECMG 0601/0603 29004KT
BECMG 0604/0606 BKN010
BECMG 0616/0618 30010KT
BECMG 0618/0620 SCT015

Example: see airport list